01:03
Airports
Links
Donate
Help keep this website running!
PayPal
Bitcoin
METAR
KDPA 200052Z 19012G21KT 8SM CLR 03/M01 A2973 RMK AO2 SLP074 T00281011
Current Weather Conditions at KDPA
VFR 00:52:00 20-01-18
Automated station
Altimeter:29.73 hg
Temp:2.8°c 36°f
Dew point:-1.1°c 30°f
Wind:12 knots, 13.8 mph, 6 m/s, from 190°
Visibility:8.0 statute miles
(CLR) Clear
Past METAR reports
VFR 23:52:00 19-01-18
Automated station
Altimeter:29.74 hg
Temp:1.7°c 34°f
Dew point:-1.7°c 30°f
Wind:10 knots, 11.5 mph, 5 m/s, from 190°
Visibility:7.0 statute miles
(CLR) Clear
KDPA 192352Z 19010KT 7SM CLR 02/M02 A2974 RMK AO2 SLP080 T00171017 10028 20017 55007
VFR 22:52:00 19-01-18
Automated station
Altimeter:29.74 hg
Temp:1.7°c 34°f
Dew point:-1.7°c 30°f
Wind:13 knots, 15 mph, 7 m/s, from 190°
Visibility:6.0 statute miles
(CLR) Clear
KDPA 192252Z 19013KT 6SM HZ CLR 02/M02 A2974 RMK AO2 SLP079 T00171017
VFR 21:52:00 19-01-18
Automated station
Altimeter:29.76 hg
Temp:2.8°c 36°f
Dew point:-2.2°c 28°f
Wind:14 knots, 16.1 mph, 7 m/s, from 190°
Visibility:6.0 statute miles
(CLR) Clear
KDPA 192152Z 19014KT 6SM HZ CLR 03/M02 A2976 RMK AO2 PK WND 20026/2140 SLP085 T00281022
VFR 20:52:00 19-01-18
Automated station
Altimeter:29.76 hg
Temp:2.8°c 36°f
Dew point:-2.8°c 28°f
Wind:13 knots, 15 mph, 7 m/s, from 190°
Visibility:10.0 statute miles
(CLR) Clear
KDPA 192052Z 19013G25KT 10SM CLR 03/M03 A2976 RMK AO2 SLP087 T00281028 56022
VFR 19:52:00 19-01-18
Automated station
Altimeter:29.77 hg
Temp:2.8°c 36°f
Dew point:-3.3°c 27°f
Wind:13 knots, 15 mph, 7 m/s, from 200°
Visibility:10.0 statute miles
(CLR) Clear
KDPA 191952Z 20013G20KT 10SM CLR 03/M03 A2977 RMK AO2 SLP090 T00281033
TAF
KDPA 192320Z 2000/2024 21016G22KT P6SM BKN250 WS020/23055KT FM200700 23011KT P6SM BKN250 FM201700 24008KT P6SM BKN020 FM201900 23009KT P6SM OVC012 FM202300 22006KT 5SM BR OVC008
Forecast at KDPA
00:00 20-01-18 to 07:00 20-01-18
Wind:16 Knots from 210°
Visibility:6.21 statute miles
25000BKN Broken
FM 07:00 20-01-18 to 17:00 20-01-18
Wind:11 Knots from 230°
Visibility:6.21 statute miles
25000BKN Broken
FM 17:00 20-01-18 to 19:00 20-01-18
Wind:8 Knots from 240°
Visibility:6.21 statute miles
2000BKN Broken
FM 19:00 20-01-18 to 23:00 20-01-18
Wind:9 Knots from 230°
Visibility:6.21 statute miles
1200OVC Overcast
FM 23:00 20-01-18 to 00:00 21-01-18
BR
Wind:6 Knots from 220°
Visibility:5.0 statute miles
800OVC Overcast